createdAt,value
2023-05-24T00:00:05.088Z,99.90
2023-05-24T00:01:37.795Z,99.90
2023-05-24T00:03:10.971Z,99.90
2023-05-24T00:04:45.298Z,99.90
2023-05-24T00:06:18.407Z,99.90
2023-05-24T00:07:53.457Z,99.90
2023-05-24T00:09:26.623Z,99.90
2023-05-24T00:10:59.595Z,99.90
2023-05-24T00:12:31.537Z,99.90
2023-05-24T00:14:04.970Z,99.90
2023-05-24T00:15:37.934Z,99.90
2023-05-24T00:17:11.016Z,99.90
2023-05-24T00:18:47.115Z,99.90
2023-05-24T00:20:21.671Z,99.90
2023-05-24T00:21:53.885Z,99.90
2023-05-24T00:23:27.224Z,99.90
2023-05-24T00:25:00.262Z,99.90
2023-05-24T00:26:32.281Z,99.90
2023-05-24T00:28:05.146Z,99.90
2023-05-24T00:29:39.428Z,99.90
2023-05-24T00:31:12.460Z,99.90
2023-05-24T00:32:45.777Z,99.90
2023-05-24T00:34:18.743Z,99.90
2023-05-24T00:35:56.392Z,99.90
2023-05-24T00:37:29.803Z,99.90
2023-05-24T00:39:02.808Z,99.90
2023-05-24T00:40:34.938Z,99.90
2023-05-24T00:42:08.137Z,99.90
2023-05-24T00:43:40.190Z,99.90
2023-05-24T00:45:15.810Z,99.90
2023-05-24T00:46:48.769Z,99.90
2023-05-24T00:48:24.006Z,99.90
2023-05-24T00:49:57.239Z,99.90
2023-05-24T00:51:32.961Z,99.90
2023-05-24T00:53:06.350Z,99.90
2023-05-24T00:54:40.716Z,99.90
2023-05-24T00:56:14.802Z,99.90
2023-05-24T00:57:48.055Z,99.90
2023-05-24T00:59:21.425Z,99.90
2023-05-24T01:00:57.023Z,99.90
2023-05-24T01:02:33.206Z,99.90
2023-05-24T01:04:07.509Z,99.90
2023-05-24T01:05:40.512Z,99.90
2023-05-24T01:07:19.824Z,99.90
2023-05-24T01:09:03.130Z,99.90
2023-05-24T01:10:41.727Z,99.90
2023-05-24T01:12:18.652Z,99.90
2023-05-24T01:13:55.286Z,99.90
2023-05-24T01:15:31.587Z,99.90
2023-05-24T01:17:09.492Z,99.90
2023-05-24T01:18:44.360Z,99.90
2023-05-24T01:20:18.784Z,99.90
2023-05-24T01:22:06.649Z,99.90
2023-05-24T01:23:44.893Z,99.90
2023-05-24T01:25:20.639Z,99.90
2023-05-24T01:27:08.686Z,99.90
2023-05-24T01:28:43.411Z,99.90
2023-05-24T01:30:15.634Z,99.90
2023-05-24T01:31:48.618Z,99.90
2023-05-24T01:33:22.164Z,99.90
2023-05-24T01:34:55.110Z,99.90
2023-05-24T01:36:28.226Z,99.90
2023-05-24T01:38:00.154Z,99.90
2023-05-24T01:39:35.926Z,99.90
2023-05-24T01:41:15.082Z,99.90
2023-05-24T01:42:53.356Z,99.90
2023-05-24T01:44:27.822Z,99.90
2023-05-24T01:46:04.222Z,99.90
2023-05-24T01:47:43.236Z,99.90
2023-05-24T01:49:20.494Z,99.90
2023-05-24T01:50:54.481Z,99.90
2023-05-24T01:52:30.141Z,99.90
2023-05-24T01:54:05.949Z,99.90
2023-05-24T01:55:38.082Z,99.90
2023-05-24T01:57:11.510Z,99.90
2023-05-24T01:58:46.972Z,99.90
2023-05-24T02:00:19.256Z,99.90
2023-05-24T02:01:52.099Z,99.90
2023-05-24T02:03:24.920Z,99.90
2023-05-24T02:04:58.901Z,99.90
2023-05-24T02:06:31.690Z,99.90
2023-05-24T02:08:04.554Z,99.90
2023-05-24T02:09:37.419Z,99.90
2023-05-24T02:11:09.336Z,99.90
2023-05-24T02:12:42.141Z,99.90
2023-05-24T02:14:17.299Z,99.90
2023-05-24T02:15:49.888Z,99.90
2023-05-24T02:17:23.093Z,99.90
2023-05-24T02:18:55.900Z,99.90
2023-05-24T02:20:31.048Z,99.90
2023-05-24T02:22:04.557Z,99.90
2023-05-24T02:23:37.477Z,99.70
2023-05-24T02:25:09.506Z,99.40
2023-05-24T02:26:42.394Z,99.10
2023-05-24T02:28:16.015Z,99.20
2023-05-24T02:29:49.252Z,99.20
2023-05-24T02:31:22.724Z,99.30
2023-05-24T02:32:54.721Z,99.40
2023-05-24T02:34:27.607Z,99.40
2023-05-24T02:35:59.449Z,99.50
2023-05-24T02:37:32.219Z,99.50
2023-05-24T02:39:06.018Z,99.10
2023-05-24T02:40:38.750Z,98.90
2023-05-24T02:42:11.566Z,98.80
2023-05-24T03:22:32.303Z,97.40
2023-05-24T03:24:05.643Z,97.40
2023-05-24T03:27:11.592Z,97.50
2023-05-24T03:36:32.832Z,97.70
2023-05-24T03:38:07.100Z,97.70
2023-05-24T03:42:46.295Z,98.10
2023-05-24T03:55:12.334Z,99.20
2023-05-24T03:56:45.714Z,99.30
2023-05-24T03:58:18.534Z,99.50
2023-05-24T03:59:51.360Z,99.50
2023-05-24T04:01:33.268Z,99.60
2023-05-24T04:03:09.309Z,99.60
2023-05-24T04:04:42.200Z,99.80
2023-05-24T04:06:17.502Z,99.90
2023-05-24T04:07:50.887Z,99.60
2023-05-24T04:09:25.912Z,99.50
2023-05-24T04:11:00.122Z,99.40
2023-05-24T04:12:33.021Z,99.70
2023-05-24T04:14:06.317Z,99.80
2023-05-24T04:15:39.362Z,99.50
2023-05-24T04:18:45.436Z,99.80
2023-05-24T04:20:18.509Z,99.80
2023-05-24T04:21:51.299Z,99.60
2023-05-24T04:23:23.106Z,99.60
2023-05-24T04:24:55.991Z,99.60
2023-05-24T04:28:04.476Z,99.60
2023-05-24T04:31:10.479Z,99.30
2023-05-24T04:32:44.592Z,99.60
2023-05-24T04:34:17.435Z,99.60
2023-05-24T04:35:50.801Z,99.10
2023-05-24T04:38:56.140Z,98.80
2023-05-24T04:42:02.226Z,98.50
2023-05-24T04:45:10.172Z,97.80
2023-05-24T04:49:49.627Z,97.80
2023-05-24T04:51:22.954Z,97.70
2023-05-24T04:52:55.840Z,97.80
2023-05-24T04:54:28.730Z,97.80
2023-05-24T04:56:01.671Z,98.00
2023-05-24T04:57:33.460Z,98.20
2023-05-24T04:59:06.829Z,98.20
2023-05-24T05:00:41.251Z,97.90
2023-05-24T05:02:14.266Z,98.10
2023-05-24T05:03:47.193Z,98.10
2023-05-24T05:05:20.256Z,97.80
2023-05-24T05:06:53.154Z,98.20
2023-05-24T05:08:25.942Z,98.20
2023-05-24T05:09:58.987Z,97.90
2023-05-24T05:11:32.094Z,97.40
2023-05-24T05:13:04.895Z,97.70
2023-05-24T05:14:37.708Z,97.90
2023-05-24T05:16:12.117Z,97.80
2023-05-24T05:17:45.660Z,97.90
2023-05-24T05:19:18.576Z,97.80
2023-05-24T05:20:51.725Z,98.00
2023-05-24T05:22:24.562Z,97.80
2023-05-24T05:23:57.355Z,97.50
2023-05-24T05:25:31.056Z,97.50
2023-05-24T05:27:03.873Z,97.60
2023-05-24T05:28:36.658Z,97.60
2023-05-24T05:30:09.935Z,97.50
2023-05-24T05:31:44.110Z,97.30
2023-05-24T05:33:17.028Z,97.20
2023-05-24T05:34:49.886Z,97.10
2023-05-24T05:36:22.672Z,97.00
2023-05-24T05:37:55.580Z,97.30
2023-05-24T05:39:28.393Z,97.50
2023-05-24T05:41:01.203Z,97.40
2023-05-24T05:42:34.062Z,97.40
2023-05-24T05:44:07.073Z,97.30
2023-05-24T05:45:40.349Z,97.30
2023-05-24T05:47:14.661Z,97.50
2023-05-24T05:50:20.569Z,97.50
2023-05-24T05:51:54.712Z,97.30
2023-05-24T05:53:27.494Z,97.20
2023-05-24T05:55:00.308Z,97.20
2023-05-24T05:56:33.525Z,97.00
2023-05-24T05:58:06.526Z,97.30
2023-05-24T05:59:39.350Z,97.50
2023-05-24T06:01:12.158Z,97.30
2023-05-24T06:02:46.363Z,97.40
2023-05-24T06:04:19.524Z,97.60
2023-05-24T06:05:52.353Z,97.00
2023-05-24T06:07:25.065Z,96.90
2023-05-24T06:08:57.904Z,96.70
2023-05-24T06:10:30.714Z,96.40
2023-05-24T06:12:03.542Z,96.80
2023-05-24T06:13:36.326Z,96.50
2023-05-24T06:15:09.712Z,96.50
2023-05-24T06:16:43.650Z,96.70
2023-05-24T06:18:17.911Z,96.40
2023-05-24T06:19:51.385Z,96.30
2023-05-24T06:21:24.116Z,95.90
2023-05-24T06:22:57.248Z,96.30
2023-05-24T06:24:30.290Z,96.70
2023-05-24T06:26:03.220Z,95.90
2023-05-24T06:27:36.246Z,96.40
2023-05-24T06:29:12.316Z,96.10
2023-05-24T06:30:44.484Z,96.00
2023-05-24T06:32:17.723Z,96.30
2023-05-24T06:34:02.691Z,96.30
2023-05-24T06:35:36.179Z,96.30
2023-05-24T06:37:10.347Z,95.80
2023-05-24T06:38:43.169Z,95.70
2023-05-24T06:40:16.179Z,95.60
2023-05-24T06:41:51.268Z,95.60
2023-05-24T06:43:24.087Z,95.70
2023-05-24T06:44:56.803Z,95.80
2023-05-24T06:46:29.636Z,95.90
2023-05-24T06:48:02.509Z,95.80
2023-05-24T06:49:36.894Z,95.80
2023-05-24T06:51:09.638Z,95.40
2023-05-24T06:52:42.441Z,95.50
2023-05-24T06:54:15.320Z,95.70
2023-05-24T06:55:48.185Z,95.30
2023-05-24T06:57:20.942Z,95.20
2023-05-24T06:58:53.771Z,95.10
2023-05-24T07:00:27.289Z,95.00
2023-05-24T07:02:01.252Z,95.00
2023-05-24T07:03:37.245Z,94.90
2023-05-24T07:05:12.406Z,94.90
2023-05-24T07:06:45.904Z,95.10
2023-05-24T07:08:18.760Z,94.60
2023-05-24T07:09:51.859Z,94.10
2023-05-24T07:11:24.619Z,94.20
2023-05-24T07:12:57.401Z,94.40
2023-05-24T07:14:30.437Z,94.40
2023-05-24T07:16:03.286Z,94.40
2023-05-24T07:17:36.501Z,94.60
2023-05-24T07:19:09.564Z,94.50
2023-05-24T07:20:44.168Z,94.40
2023-05-24T07:22:17.328Z,94.50
2023-05-24T07:23:50.693Z,94.60
2023-05-24T07:25:24.746Z,94.30
2023-05-24T07:26:57.805Z,94.10
2023-05-24T07:28:30.715Z,94.20
2023-05-24T07:30:03.578Z,93.50
2023-05-24T07:31:36.929Z,92.50
2023-05-24T07:33:09.788Z,93.70
2023-05-24T07:34:43.493Z,93.70
2023-05-24T07:36:17.663Z,93.40
2023-05-24T07:37:50.790Z,93.70
2023-05-24T07:39:25.165Z,93.20
2023-05-24T07:41:00.091Z,93.30
2023-05-24T07:42:32.856Z,93.20
2023-05-24T07:44:05.749Z,93.00
2023-05-24T07:45:38.520Z,93.00
2023-05-24T07:47:11.339Z,93.20
2023-05-24T07:48:44.200Z,93.10
2023-05-24T07:50:17.118Z,93.30
2023-05-24T07:51:51.974Z,93.50
2023-05-24T07:53:24.758Z,93.70
2023-05-24T07:54:57.558Z,93.90
2023-05-24T07:56:30.291Z,93.60
2023-05-24T07:58:03.061Z,93.50
2023-05-24T07:59:36.119Z,93.50
2023-05-24T08:01:08.948Z,93.70
2023-05-24T08:02:42.255Z,93.50
2023-05-24T08:04:15.200Z,93.30
2023-05-24T08:05:48.043Z,93.50
2023-05-24T08:07:22.487Z,93.50
2023-05-24T08:08:55.367Z,93.40
2023-05-24T08:10:28.175Z,93.60
2023-05-24T08:12:01.180Z,93.90
2023-05-24T08:13:34.110Z,94.00
2023-05-24T08:15:07.623Z,94.10
2023-05-24T08:16:40.526Z,94.00
2023-05-24T08:18:13.418Z,94.10
2023-05-24T08:19:46.215Z,94.10
2023-05-24T08:21:19.026Z,94.00
2023-05-24T08:22:53.772Z,93.50
2023-05-24T08:24:26.795Z,93.40
2023-05-24T08:25:59.891Z,93.30
2023-05-24T08:27:33.036Z,93.40
2023-05-24T08:29:05.984Z,93.30
2023-05-24T08:30:38.748Z,93.30
2023-05-24T08:32:11.741Z,93.40
2023-05-24T08:33:44.671Z,93.30
2023-05-24T08:35:21.702Z,93.20
2023-05-24T08:36:55.160Z,93.40
2023-05-24T08:38:29.811Z,93.40
2023-05-24T08:40:04.138Z,93.20
2023-05-24T08:41:37.481Z,93.40
2023-05-24T08:43:12.163Z,93.70
2023-05-24T08:44:48.607Z,92.80
2023-05-24T08:46:21.805Z,93.30
2023-05-24T08:47:55.965Z,93.30
2023-05-24T08:49:31.371Z,93.20
2023-05-24T08:51:06.232Z,93.10
2023-05-24T08:52:39.685Z,93.20
2023-05-24T08:54:14.673Z,93.40
2023-05-24T08:55:47.576Z,93.60
2023-05-24T08:57:21.453Z,93.50
2023-05-24T08:58:54.961Z,93.30
2023-05-24T09:00:27.999Z,93.30
2023-05-24T09:02:01.037Z,93.30
2023-05-24T09:03:35.088Z,93.40
2023-05-24T09:05:10.562Z,93.20
2023-05-24T09:06:43.791Z,93.20
2023-05-24T09:08:18.365Z,93.30
2023-05-24T09:09:54.456Z,92.40
2023-05-24T09:11:28.015Z,93.20
2023-05-24T09:13:03.117Z,93.00
2023-05-24T09:14:35.963Z,92.90
2023-05-24T09:16:09.104Z,92.80
2023-05-24T09:17:42.062Z,93.10
2023-05-24T09:19:15.524Z,93.30
2023-05-24T09:20:48.376Z,93.30
2023-05-24T09:22:25.740Z,93.60
2023-05-24T09:23:58.549Z,93.30
2023-05-24T09:25:32.680Z,93.40
2023-05-24T09:27:05.683Z,92.90
2023-05-24T09:28:38.715Z,93.00
2023-05-24T09:30:12.467Z,93.20
2023-05-24T09:31:45.707Z,93.00
2023-05-24T09:33:19.143Z,93.30
2023-05-24T09:34:53.279Z,93.40
2023-05-24T09:36:26.124Z,93.20
2023-05-24T09:38:00.028Z,93.10
2023-05-24T09:39:33.234Z,93.30
2023-05-24T09:41:08.342Z,93.40
2023-05-24T09:42:41.354Z,93.40
2023-05-24T09:44:14.410Z,93.50
2023-05-24T09:45:49.150Z,93.10
2023-05-24T09:47:22.121Z,92.90
2023-05-24T09:48:58.675Z,93.10
2023-05-24T09:50:31.827Z,92.80
2023-05-24T09:52:04.807Z,92.90
2023-05-24T09:53:38.604Z,92.70
2023-05-24T09:55:15.570Z,92.50
2023-05-24T09:56:49.860Z,92.60
2023-05-24T09:58:23.189Z,92.50
2023-05-24T09:59:55.991Z,92.70
2023-05-24T10:01:31.851Z,92.40
2023-05-24T10:03:06.804Z,92.20
2023-05-24T10:04:39.917Z,91.80
2023-05-24T10:06:13.894Z,91.90
2023-05-24T10:07:47.280Z,92.00
2023-05-24T10:09:20.423Z,92.00
2023-05-24T10:10:53.300Z,91.30
2023-05-24T10:12:27.935Z,91.40
2023-05-24T10:14:00.848Z,91.90
2023-05-24T10:15:33.622Z,91.90
2023-05-24T10:17:06.973Z,91.90
2023-05-24T10:18:39.953Z,91.90
2023-05-24T10:20:13.538Z,91.90
2023-05-24T10:21:47.705Z,91.40
2023-05-24T10:23:21.598Z,91.40
2023-05-24T10:24:59.434Z,91.20
2023-05-24T10:26:33.173Z,90.50
2023-05-24T10:28:08.400Z,89.00
2023-05-24T10:29:46.186Z,89.40
2023-05-24T10:31:20.796Z,88.20
2023-05-24T10:32:54.901Z,88.80
2023-05-24T10:34:27.849Z,88.90
2023-05-24T10:36:00.949Z,88.20
2023-05-24T10:37:34.257Z,89.50
2023-05-24T10:39:09.350Z,89.40
2023-05-24T10:40:42.917Z,89.40
2023-05-24T10:42:17.764Z,89.50
2023-05-24T10:44:07.829Z,88.80
2023-05-24T10:45:42.105Z,89.20
2023-05-24T10:47:17.015Z,89.30
2023-05-24T10:49:00.530Z,89.90
2023-05-24T10:50:33.439Z,89.50
2023-05-24T10:52:10.043Z,88.20
2023-05-24T10:53:42.869Z,88.40
2023-05-24T10:55:16.029Z,88.60
2023-05-24T10:56:49.713Z,88.00
2023-05-24T10:58:23.700Z,88.10
2023-05-24T10:59:58.401Z,88.50
2023-05-24T11:01:31.848Z,87.20
2023-05-24T11:03:08.542Z,86.70
2023-05-24T11:04:43.410Z,87.30
2023-05-24T11:06:16.465Z,88.00
2023-05-24T11:07:49.464Z,87.80
2023-05-24T11:09:22.649Z,87.30
2023-05-24T11:11:22.237Z,86.70
2023-05-24T11:12:58.708Z,87.20
2023-05-24T11:14:32.439Z,86.30
2023-05-24T11:16:06.726Z,86.50
2023-05-24T11:17:54.503Z,86.90
2023-05-24T11:19:31.532Z,83.20
2023-05-24T11:21:04.405Z,84.20
2023-05-24T11:22:40.239Z,83.40
2023-05-24T11:24:13.314Z,82.70
2023-05-24T11:25:47.649Z,82.40
2023-05-24T11:27:20.548Z,81.60
2023-05-24T11:28:53.320Z,81.00
2023-05-24T11:30:26.480Z,81.60
2023-05-24T11:32:05.198Z,82.00
2023-05-24T11:33:42.495Z,82.50
2023-05-24T11:35:16.020Z,81.50
2023-05-24T11:36:49.989Z,82.00
2023-05-24T11:38:25.007Z,81.10
2023-05-24T11:39:57.998Z,81.40
2023-05-24T11:41:30.856Z,80.80
2023-05-24T11:43:06.718Z,80.80
2023-05-24T11:44:39.622Z,80.90
2023-05-24T11:46:12.461Z,81.40
2023-05-24T11:47:46.814Z,81.20
2023-05-24T11:49:19.662Z,81.10
2023-05-24T11:50:52.656Z,80.90
2023-05-24T11:52:25.878Z,80.90
2023-05-24T11:53:59.024Z,80.30
2023-05-24T11:55:32.901Z,80.80
2023-05-24T11:57:06.388Z,80.70
2023-05-24T11:58:45.927Z,80.90
2023-05-24T12:00:25.123Z,81.50
2023-05-24T12:02:00.168Z,81.00
2023-05-24T12:03:35.082Z,80.40
2023-05-24T12:05:09.876Z,81.10
2023-05-24T12:06:43.397Z,80.70
2023-05-24T12:08:16.466Z,80.90
2023-05-24T12:09:49.364Z,81.10
2023-05-24T12:11:22.354Z,80.70
2023-05-24T12:12:55.082Z,81.20
2023-05-24T12:14:30.639Z,80.60
2023-05-24T12:16:03.743Z,80.00
2023-05-24T12:17:36.791Z,79.50
2023-05-24T12:19:20.261Z,79.40
2023-05-24T12:21:07.885Z,80.00
2023-05-24T12:22:49.960Z,79.30
2023-05-24T12:24:24.275Z,79.70
2023-05-24T12:26:01.039Z,79.10
2023-05-24T12:27:34.981Z,78.90
2023-05-24T12:29:07.924Z,77.90
2023-05-24T12:30:43.417Z,75.00
2023-05-24T12:32:16.486Z,75.70
2023-05-24T12:33:51.563Z,76.30
2023-05-24T12:35:27.048Z,76.90
2023-05-24T12:37:00.825Z,77.60
2023-05-24T12:38:33.636Z,76.90
2023-05-24T12:40:15.674Z,76.70
2023-05-24T12:41:52.061Z,76.50
2023-05-24T12:43:24.814Z,76.10
2023-05-24T12:44:57.638Z,75.60
2023-05-24T12:46:30.631Z,74.60
2023-05-24T12:48:05.210Z,74.00
2023-05-24T12:49:38.257Z,74.10
2023-05-24T12:51:12.418Z,73.60
2023-05-24T12:52:46.673Z,73.60
2023-05-24T12:54:20.164Z,73.80
2023-05-24T12:55:56.096Z,73.20
2023-05-24T12:57:28.913Z,72.70
2023-05-24T12:59:01.761Z,73.60
2023-05-24T13:00:34.681Z,73.60
2023-05-24T13:02:07.586Z,73.30
2023-05-24T13:03:40.793Z,73.50
2023-05-24T13:05:13.708Z,73.40
2023-05-24T13:06:48.319Z,73.50
2023-05-24T13:08:21.743Z,74.60
2023-05-24T13:09:54.571Z,75.00
2023-05-24T13:11:27.731Z,75.20
2023-05-24T13:13:00.538Z,76.00
2023-05-24T13:14:34.276Z,75.80
2023-05-24T13:16:08.937Z,76.00
2023-05-24T13:17:42.015Z,76.50
2023-05-24T13:19:14.882Z,76.10
2023-05-24T13:20:48.019Z,77.30
2023-05-24T13:22:22.433Z,77.40
2023-05-24T13:23:55.258Z,76.40
2023-05-24T13:25:28.215Z,76.60
2023-05-24T13:27:01.480Z,76.40
2023-05-24T13:28:34.637Z,77.30
2023-05-24T13:30:09.789Z,77.30
2023-05-24T13:31:43.005Z,77.00
2023-05-24T13:33:16.168Z,77.10
2023-05-24T13:34:49.417Z,77.80
2023-05-24T13:36:22.291Z,77.90
2023-05-24T13:37:58.011Z,78.30
2023-05-24T13:39:30.860Z,78.10
2023-05-24T13:41:03.746Z,77.80
2023-05-24T13:42:36.652Z,77.80
2023-05-24T13:44:09.814Z,78.10
2023-05-24T13:45:43.174Z,77.60
2023-05-24T13:47:31.193Z,77.40
2023-05-24T13:49:12.208Z,76.30
2023-05-24T13:50:45.547Z,76.50
2023-05-24T13:52:18.445Z,76.60
2023-05-24T13:53:52.651Z,77.00
2023-05-24T13:55:25.529Z,76.80
2023-05-24T13:56:58.431Z,76.80
2023-05-24T13:58:31.272Z,77.30
2023-05-24T14:00:05.276Z,78.10
2023-05-24T14:01:39.203Z,77.30
2023-05-24T14:03:13.122Z,76.30
2023-05-24T14:04:46.012Z,75.90
2023-05-24T14:06:19.890Z,76.30
2023-05-24T14:07:53.020Z,75.90
2023-05-24T14:09:27.364Z,75.80
2023-05-24T14:11:00.241Z,76.30
2023-05-24T14:12:33.075Z,76.20
2023-05-24T14:15:42.196Z,75.50
2023-05-24T14:17:15.365Z,76.20
2023-05-24T14:18:49.267Z,76.30
2023-05-24T14:20:22.436Z,75.90
2023-05-24T14:21:55.293Z,76.10
2023-05-24T14:23:30.375Z,75.40
2023-05-24T14:25:04.919Z,75.10
2023-05-24T14:26:37.701Z,73.20
2023-05-24T14:28:10.498Z,73.00
2023-05-24T14:29:43.247Z,73.40
2023-05-24T14:31:16.101Z,72.60
2023-05-24T14:32:49.141Z,73.30
2023-05-24T14:34:21.921Z,73.80
2023-05-24T14:35:54.705Z,73.30
2023-05-24T14:37:27.466Z,72.80
2023-05-24T14:39:00.650Z,72.60
2023-05-24T14:40:36.829Z,73.10
2023-05-24T14:42:09.631Z,72.10
2023-05-24T14:43:42.538Z,72.80
2023-05-24T14:45:15.522Z,72.00
2023-05-24T14:46:48.922Z,71.20
2023-05-24T14:48:21.697Z,71.50
2023-05-24T14:49:54.460Z,71.00
2023-05-24T14:51:27.205Z,71.40
2023-05-24T14:53:01.173Z,70.90
2023-05-24T14:54:34.022Z,70.90
2023-05-24T14:56:09.890Z,71.00
2023-05-24T14:57:42.885Z,71.30
2023-05-24T14:59:16.061Z,70.90
2023-05-24T15:00:49.241Z,71.00
2023-05-24T15:02:22.298Z,70.30
2023-05-24T15:03:55.146Z,70.90
2023-05-24T15:05:27.105Z,70.90
2023-05-24T15:06:59.904Z,71.40
2023-05-24T15:08:34.744Z,71.10
2023-05-24T15:10:08.186Z,71.40
2023-05-24T15:11:42.301Z,71.60
2023-05-24T15:13:15.074Z,71.50
2023-05-24T15:14:47.907Z,72.00
2023-05-24T15:16:20.823Z,72.10
2023-05-24T15:17:53.695Z,71.40
2023-05-24T15:19:26.551Z,72.00
2023-05-24T15:20:59.446Z,71.30
2023-05-24T15:22:33.403Z,71.90
2023-05-24T15:24:06.414Z,72.00
2023-05-24T15:25:39.245Z,72.20
2023-05-24T15:27:13.357Z,72.20
2023-05-24T15:28:46.284Z,72.90
2023-05-24T15:30:19.875Z,73.00
2023-05-24T15:31:52.639Z,72.80
2023-05-24T15:33:26.568Z,72.20
2023-05-24T15:35:00.444Z,72.90
2023-05-24T15:36:33.534Z,72.30
2023-05-24T15:38:06.331Z,72.70
2023-05-24T15:39:39.146Z,73.10
2023-05-24T15:41:11.929Z,71.30
2023-05-24T15:42:47.409Z,73.30
2023-05-24T15:44:20.224Z,72.30
2023-05-24T15:45:53.637Z,72.70
2023-05-24T15:47:29.128Z,73.20
2023-05-24T15:49:01.995Z,73.40
2023-05-24T15:50:55.673Z,72.80
2023-05-24T15:52:27.579Z,71.00
2023-05-24T15:54:00.560Z,70.40
2023-05-24T15:55:33.680Z,70.80
2023-05-24T15:57:06.775Z,71.20
2023-05-24T15:58:41.084Z,69.80
2023-05-24T16:00:14.396Z,70.40
2023-05-24T16:01:47.238Z,69.80
2023-05-24T16:03:20.303Z,69.40
2023-05-24T16:04:53.138Z,69.60
2023-05-24T16:06:25.971Z,68.90
2023-05-24T16:07:58.744Z,70.20
2023-05-24T16:09:31.560Z,69.80
2023-05-24T16:11:08.119Z,70.50
2023-05-24T16:12:41.240Z,69.50
2023-05-24T16:14:15.670Z,70.10
2023-05-24T16:15:51.435Z,68.80
2023-05-24T16:17:24.303Z,68.70
2023-05-24T16:18:57.437Z,68.30
2023-05-24T16:20:30.294Z,67.50
2023-05-24T16:22:03.244Z,67.50
2023-05-24T16:23:36.176Z,69.30
2023-05-24T16:25:09.305Z,69.60
2023-05-24T16:26:42.094Z,69.30
2023-05-24T16:28:14.926Z,68.20
2023-05-24T16:29:49.284Z,67.90
2023-05-24T16:31:22.177Z,68.30
2023-05-24T16:32:55.208Z,68.40
2023-05-24T16:34:28.101Z,67.80
2023-05-24T16:36:03.609Z,67.30
2023-05-24T16:37:36.460Z,67.20
2023-05-24T16:39:11.879Z,67.00
2023-05-24T16:40:44.789Z,67.10
2023-05-24T16:42:17.716Z,67.00
2023-05-24T16:43:50.572Z,66.80
2023-05-24T16:45:24.722Z,66.40
2023-05-24T16:46:57.502Z,68.80
2023-05-24T16:48:31.545Z,69.00
2023-05-24T16:50:06.239Z,69.60
2023-05-24T16:51:39.101Z,69.80
2023-05-24T16:53:11.956Z,70.30
2023-05-24T16:54:44.754Z,69.60
2023-05-24T16:56:17.545Z,69.90
2023-05-24T16:57:50.837Z,71.10
2023-05-24T16:59:23.947Z,70.40
2023-05-24T17:00:58.537Z,70.00
2023-05-24T17:02:31.651Z,68.40
2023-05-24T17:04:04.679Z,70.00
2023-05-24T17:05:37.559Z,70.00
2023-05-24T17:07:10.398Z,69.80
2023-05-24T17:08:43.229Z,69.60
2023-05-24T17:10:16.061Z,69.40
2023-05-24T17:11:50.668Z,68.90
2023-05-24T17:13:24.016Z,68.20
2023-05-24T17:14:56.841Z,68.50
2023-05-24T17:16:31.015Z,68.70
2023-05-24T17:18:03.919Z,68.80
2023-05-24T17:19:36.975Z,69.20
2023-05-24T17:21:09.787Z,69.40
2023-05-24T17:22:42.669Z,69.20
2023-05-24T17:24:15.622Z,69.50
2023-05-24T17:25:48.528Z,69.20
2023-05-24T17:27:22.519Z,69.30
2023-05-24T17:28:56.320Z,69.90
2023-05-24T17:30:30.503Z,69.90
2023-05-24T17:32:05.264Z,70.10
2023-05-24T17:33:38.142Z,70.60
2023-05-24T17:35:11.033Z,70.50
2023-05-24T17:36:43.972Z,70.90
2023-05-24T17:38:16.738Z,70.90
2023-05-24T17:39:52.317Z,71.20
2023-05-24T17:41:25.093Z,71.60
2023-05-24T17:42:57.876Z,72.00
2023-05-24T17:44:31.268Z,71.90
2023-05-24T17:46:06.571Z,72.10
2023-05-24T17:47:41.216Z,72.00
2023-05-24T17:49:14.294Z,72.20
2023-05-24T17:50:47.047Z,72.30
2023-05-24T17:52:19.982Z,72.60
2023-05-24T17:53:52.807Z,72.70
2023-05-24T17:55:25.703Z,72.60
2023-05-24T17:56:58.515Z,73.00
2023-05-24T17:58:35.382Z,73.20
2023-05-24T18:00:08.779Z,74.00
2023-05-24T18:01:41.583Z,74.60
2023-05-24T18:03:15.868Z,74.90
2023-05-24T18:04:48.696Z,73.60
2023-05-24T18:06:21.583Z,73.10
2023-05-24T18:07:54.342Z,73.30
2023-05-24T18:09:29.636Z,74.40
2023-05-24T18:11:07.844Z,74.80
2023-05-24T18:12:40.903Z,74.30
2023-05-24T18:14:13.738Z,75.20
2023-05-24T18:15:46.540Z,75.40
2023-05-24T18:17:19.448Z,75.50
2023-05-24T18:18:54.393Z,75.40
2023-05-24T18:20:27.271Z,75.30
2023-05-24T18:22:00.141Z,75.60
2023-05-24T18:23:34.143Z,77.00
2023-05-24T18:25:07.486Z,75.70
2023-05-24T18:26:40.237Z,77.10
2023-05-24T18:28:13.148Z,76.30
2023-05-24T18:29:45.973Z,76.60
2023-05-24T18:31:20.275Z,76.90
2023-05-24T18:33:04.469Z,76.80
2023-05-24T18:34:41.520Z,77.40
2023-05-24T18:36:14.364Z,77.90
2023-05-24T18:37:47.339Z,77.40
2023-05-24T18:39:20.076Z,77.80
2023-05-24T18:40:52.935Z,78.60
2023-05-24T18:42:25.688Z,78.10
2023-05-24T18:43:58.475Z,76.20
2023-05-24T18:45:31.270Z,76.90
2023-05-24T18:47:04.383Z,77.30
2023-05-24T18:48:37.833Z,77.80
2023-05-24T18:50:12.179Z,77.60
2023-05-24T18:51:44.955Z,78.50
2023-05-24T18:53:17.655Z,78.80
2023-05-24T18:54:50.459Z,79.20
2023-05-24T18:56:23.214Z,79.40
2023-05-24T18:57:56.015Z,79.50
2023-05-24T18:59:31.626Z,79.50
2023-05-24T19:01:04.462Z,79.30
2023-05-24T19:02:39.041Z,79.20
2023-05-24T19:04:12.254Z,79.60
2023-05-24T19:05:46.797Z,79.60
2023-05-24T19:07:19.674Z,79.80
2023-05-24T19:08:52.463Z,79.50
2023-05-24T19:10:25.354Z,79.60
2023-05-24T19:11:59.278Z,79.60
2023-05-24T19:13:32.168Z,79.90
2023-05-24T19:15:05.394Z,80.10
2023-05-24T19:16:38.233Z,80.50
2023-05-24T19:18:11.087Z,81.20
2023-05-24T19:19:44.456Z,81.30
2023-05-24T19:21:18.586Z,81.80
2023-05-24T19:22:51.365Z,82.20
2023-05-24T19:24:25.886Z,82.70
2023-05-24T19:25:58.759Z,83.00
2023-05-24T19:27:31.569Z,83.20
2023-05-24T19:29:04.392Z,83.70
2023-05-24T19:30:37.872Z,84.00
2023-05-24T19:32:11.544Z,84.20
2023-05-24T19:33:58.595Z,84.20
2023-05-24T19:35:32.937Z,84.40
2023-05-24T19:37:07.126Z,84.70
2023-05-24T19:38:39.922Z,84.80
2023-05-24T19:40:12.837Z,85.10
2023-05-24T19:41:45.677Z,85.10
2023-05-24T19:43:18.457Z,85.50
2023-05-24T19:44:51.260Z,85.60
2023-05-24T19:46:24.225Z,85.70
2023-05-24T19:47:57.085Z,86.00
2023-05-24T19:49:30.031Z,86.20
2023-05-24T19:51:02.855Z,86.40
2023-05-24T19:52:36.981Z,86.70
2023-05-24T19:54:10.069Z,86.90
2023-05-24T19:55:43.170Z,86.90
2023-05-24T19:57:16.183Z,87.20
2023-05-24T19:58:50.022Z,87.50
2023-05-24T20:00:22.837Z,87.40
2023-05-24T20:01:55.619Z,87.90
2023-05-24T20:03:27.574Z,88.00
2023-05-24T20:05:00.741Z,88.10
2023-05-24T20:06:33.533Z,88.40
2023-05-24T20:08:07.759Z,87.80
2023-05-24T20:09:41.705Z,88.20
2023-05-24T20:11:14.597Z,87.90
2023-05-24T20:12:47.413Z,87.80
2023-05-24T20:14:20.315Z,88.20
2023-05-24T20:15:55.823Z,90.10
2023-05-24T20:17:29.007Z,88.80
2023-05-24T20:19:01.833Z,88.70
2023-05-24T20:20:34.698Z,88.70
2023-05-24T20:22:07.649Z,88.00
2023-05-24T20:23:42.289Z,88.40
2023-05-24T20:25:15.085Z,86.40
2023-05-24T20:26:48.192Z,88.00
2023-05-24T20:28:30.225Z,88.00
2023-05-24T20:30:04.728Z,88.30
2023-05-24T20:31:38.245Z,87.90
2023-05-24T20:33:11.058Z,88.00
2023-05-24T20:34:43.846Z,88.20
2023-05-24T20:36:16.836Z,88.30
2023-05-24T20:37:49.641Z,87.80
2023-05-24T20:39:23.726Z,88.10
2023-05-24T20:40:56.693Z,88.40
2023-05-24T20:42:29.480Z,88.20
2023-05-24T20:44:02.251Z,88.30
2023-05-24T20:45:35.186Z,89.30
2023-05-24T20:47:08.087Z,88.00
2023-05-24T20:48:42.070Z,87.70
2023-05-24T20:50:15.049Z,88.00
2023-05-24T20:51:47.952Z,88.30
2023-05-24T20:53:20.739Z,88.00
2023-05-24T20:54:54.880Z,88.40
2023-05-24T20:56:27.720Z,88.60
2023-05-24T20:58:00.498Z,88.80
2023-05-24T20:59:33.363Z,88.60
2023-05-24T21:01:06.321Z,88.10
2023-05-24T21:02:40.262Z,88.50
2023-05-24T21:04:13.140Z,88.70
2023-05-24T21:05:46.149Z,88.80
2023-05-24T21:07:19.085Z,88.70
2023-05-24T21:08:51.843Z,88.70
2023-05-24T21:10:27.821Z,88.80
2023-05-24T21:12:01.618Z,89.00
2023-05-24T21:13:34.383Z,89.00
2023-05-24T21:15:07.674Z,89.10
2023-05-24T21:16:40.513Z,89.10
2023-05-24T21:18:13.425Z,88.30
2023-05-24T21:19:46.211Z,89.40
2023-05-24T21:21:19.238Z,89.60
2023-05-24T21:22:52.005Z,89.60
2023-05-24T21:24:24.754Z,89.70
2023-05-24T21:25:58.915Z,89.80